Time;durP1;ratioP1;P1;durP2;ratioP2;P2;SDS_P1;SDS_P2;PMS_P1;PMS_P2;Temp;Humidity;BMP_temperature;BMP_pressure;BME280_temperature;BME280_humidity;BME280_pressure;Samples;Min_cycle;Max_cycle;Signal;HPM_P1;HPM_P2
2023/03/18 00:02:03;;;;;;;26.88;14.80;;;;;;;8.46;92.08;100579.09;5099200;28;20048;-67
2023/03/18 00:04:29;;;;;;;29.00;15.75;;;;;;;8.40;92.08;100565.63;5101125;28;20053;-64
2023/03/18 00:06:54;;;;;;;29.80;15.02;;;;;;;8.50;92.03;100576.06;5101420;28;20024;-65
2023/03/18 00:09:20;;;;;;;26.50;15.23;;;;;;;8.54;92.08;100583.50;5101723;28;20031;-64
2023/03/18 00:11:45;;;;;;;29.67;14.98;;;;;;;8.53;92.33;100597.94;5100513;28;20035;-64
2023/03/18 00:14:11;;;;;;;31.05;15.48;;;;;;;8.52;91.95;100596.31;5099981;28;20109;-65
2023/03/18 00:16:37;;;;;;;26.85;15.75;;;;;;;8.56;92.50;100580.66;5101582;28;20016;-67
2023/03/18 00:19:03;;;;;;;34.67;16.48;;;;;;;8.54;92.61;100582.69;5099086;28;20078;-64
2023/03/18 00:21:30;;;;;;;30.50;15.43;;;;;;;8.57;92.45;100576.94;5100199;28;20023;-65
2023/03/18 00:23:57;;;;;;;30.63;16.25;;;;;;;8.54;92.42;100569.28;5096276;28;20020;-65
2023/03/18 00:26:24;;;;;;;31.63;17.02;;;;;;;8.54;92.55;100572.78;5095541;28;20035;-64
2023/03/18 00:28:50;;;;;;;30.33;16.90;;;;;;;8.51;92.81;100553.56;5094810;28;20542;-65
2023/03/18 00:31:16;;;;;;;32.08;17.10;;;;;;;8.49;92.89;100567.19;5092941;28;20067;-64
2023/03/18 00:33:44;;;;;;;32.25;17.00;;;;;;;8.45;93.22;100557.88;5098040;28;20414;-65
2023/03/18 00:36:12;;;;;;;30.95;17.77;;;;;;;8.49;93.16;100563.69;5100440;28;20034;-67
2023/03/18 00:38:39;;;;;;;34.13;18.08;;;;;;;8.43;93.52;100560.72;5107891;28;20004;-64
2023/03/18 00:41:14;;;;;;;36.33;18.63;;;;;;;8.44;93.82;100559.72;5106506;28;20031;-66
2023/03/18 00:43:45;;;;;;;33.25;19.13;;;;;;;8.42;93.73;100580.53;5104455;28;20036;-65
2023/03/18 00:46:16;;;;;;;36.80;19.58;;;;;;;8.44;93.49;100572.28;5097540;28;20032;-64
2023/03/18 00:48:43;;;;;;;37.15;18.83;;;;;;;8.43;94.08;100566.09;5097666;28;20038;-64
2023/03/18 00:51:12;;;;;;;36.75;19.77;;;;;;;8.42;93.99;100569.78;5098603;28;20395;-64
2023/03/18 00:53:41;;;;;;;36.53;19.48;;;;;;;8.46;93.74;100571.06;5099948;28;20055;-64
2023/03/18 00:56:07;;;;;;;34.55;19.92;;;;;;;8.43;93.82;100570.63;5100350;28;20032;-65
2023/03/18 00:58:33;;;;;;;36.22;20.67;;;;;;;8.46;94.03;100568.38;5100900;28;20465;-66
2023/03/18 01:00:59;;;;;;;36.63;20.50;;;;;;;8.35;94.71;100568.88;5099578;28;20020;-64
2023/03/18 01:03:24;;;;;;;35.33;21.25;;;;;;;8.44;94.39;100567.75;5098572;28;20117;-65
2023/03/18 01:05:52;;;;;;;40.60;21.10;;;;;;;8.34;94.32;100555.63;5098327;28;20040;-65
2023/03/18 01:08:18;;;;;;;34.95;21.98;;;;;;;8.41;94.65;100568.16;5098180;28;20028;-65
2023/03/18 01:10:43;;;;;;;37.85;22.20;;;;;;;8.42;94.37;100568.97;5098316;28;20479;-64
2023/03/18 01:13:09;;;;;;;37.75;21.42;;;;;;;8.42;94.93;100553.72;5098623;28;20038;-65
2023/03/18 01:15:34;;;;;;;39.47;22.83;;;;;;;8.45;95.22;100552.50;5098583;28;20028;-64
2023/03/18 01:18:00;;;;;;;39.60;22.02;;;;;;;8.38;94.73;100544.41;5099570;28;20077;-64
2023/03/18 01:20:26;;;;;;;39.40;22.63;;;;;;;8.34;95.06;100537.69;5098887;28;20055;-64
2023/03/18 01:22:51;;;;;;;39.97;22.13;;;;;;;8.40;94.77;100536.16;5100758;28;20032;-64
2023/03/18 01:25:17;;;;;;;38.53;22.92;;;;;;;8.44;94.75;100540.94;5099275;28;20028;-64
2023/03/18 01:27:43;;;;;;;39.22;23.42;;;;;;;8.44;95.10;100535.59;5100618;28;20463;-65
2023/03/18 01:30:10;;;;;;;37.30;22.63;;;;;;;8.34;95.36;100515.44;5095039;28;20053;-65
2023/03/18 01:32:36;;;;;;;44.80;23.23;;;;;;;8.48;95.18;100541.41;5092028;28;20063;-64
2023/03/18 01:35:02;;;;;;;48.33;23.98;;;;;;;8.47;95.18;100551.25;5096124;28;20035;-64
2023/03/18 01:37:27;;;;;;;40.22;24.05;;;;;;;8.52;95.06;100568.66;5096767;28;20035;-68
2023/03/18 01:39:53;;;;;;;35.90;23.27;;;;;;;8.53;95.75;100573.81;5095731;28;20024;-64
2023/03/18 01:42:21;;;;;;;40.38;24.95;;;;;;;8.52;95.73;100572.16;5096321;28;20137;-64
2023/03/18 01:44:46;;;;;;;38.75;24.40;;;;;;;8.55;95.89;100579.81;5097628;28;20028;-64
2023/03/18 01:47:15;;;;;;;44.95;25.52;;;;;;;8.58;95.67;100567.91;5097855;28;20085;-64
2023/03/18 01:49:46;;;;;;;42.13;25.38;;;;;;;8.53;96.09;100564.94;5098842;28;20035;-64
2023/03/18 01:52:17;;;;;;;40.65;24.63;;;;;;;8.42;96.83;100542.16;5097486;28;20055;-65
2023/03/18 01:54:55;;;;;;;43.08;25.27;;;;;;;8.51;96.41;100546.38;5094747;28;20016;-65
2023/03/18 01:57:22;;;;;;;42.28;25.45;;;;;;;8.58;96.26;100560.69;5095074;28;20023;-65
2023/03/18 01:59:51;;;;;;;40.75;24.45;;;;;;;8.59;96.39;100556.97;5098648;28;20024;-64
2023/03/18 02:02:17;;;;;;;39.33;24.95;;;;;;;8.59;96.50;100551.59;5096310;28;20119;-64
2023/03/18 02:04:47;;;;;;;36.25;24.65;;;;;;;8.57;97.24;100540.22;5083232;28;20031;-65
2023/03/18 02:07:34;;;;;;;48.10;25.60;;;;;;;8.60;96.69;100547.06;5101749;28;20032;-64
2023/03/18 02:10:04;;;;;;;39.78;23.98;;;;;;;8.60;96.77;100534.47;5098519;28;20372;-64
2023/03/18 02:12:33;;;;;;;42.63;24.30;;;;;;;8.54;97.15;100529.06;5097256;28;20076;-64
2023/03/18 02:15:01;;;;;;;44.42;25.45;;;;;;;8.66;97.20;100557.03;5098576;28;20024;-64
2023/03/18 02:17:30;;;;;;;46.00;25.85;;;;;;;8.70;97.09;100553.75;5102413;28;20030;-66
2023/03/18 02:20:05;;;;;;;40.60;25.58;;;;;;;8.69;97.33;100556.63;5101926;28;20122;-65
2023/03/18 02:22:34;;;;;;;46.90;25.38;;;;;;;8.75;97.04;100553.19;5102380;28;20478;-65
2023/03/18 02:25:29;;;;;;;44.85;23.92;;;;;;;8.72;96.98;100561.63;5102153;28;20386;-65
2023/03/18 02:28:00;;;;;;;44.33;25.80;;;;;;;8.79;96.75;100565.19;5100992;28;20031;-66
2023/03/18 02:30:32;;;;;;;41.30;24.77;;;;;;;8.80;97.14;100553.41;5102195;28;20051;-65
2023/03/18 02:32:59;;;;;;;44.60;25.27;;;;;;;8.83;97.54;100560.25;5099115;28;20410;-68
2023/03/18 02:35:26;;;;;;;45.95;25.35;;;;;;;8.78;97.22;100555.50;5099865;28;20020;-66
2023/03/18 02:37:52;;;;;;;48.88;26.00;;;;;;;8.82;97.27;100562.13;5099874;28;20095;-69
2023/03/18 02:40:20;;;;;;;41.80;25.67;;;;;;;8.83;97.42;100568.31;5100492;28;20567;-65
2023/03/18 02:42:46;;;;;;;38.15;24.15;;;;;;;8.88;97.64;100566.72;5100236;28;20031;-65
2023/03/18 02:45:39;;;;;;;42.40;24.95;;;;;;;8.92;97.26;100564.47;5102600;28;20020;-65
2023/03/18 02:48:09;;;;;;;37.10;23.67;;;;;;;8.91;97.08;100560.13;5103889;28;20077;-64
2023/03/18 02:50:34;;;;;;;40.25;24.13;;;;;;;8.90;96.96;100561.97;5102839;28;20016;-64
2023/03/18 02:53:03;;;;;;;42.63;23.73;;;;;;;8.91;97.16;100557.47;5102642;28;20058;-67
2023/03/18 02:55:28;;;;;;;39.90;23.65;;;;;;;8.92;96.91;100556.41;5102930;28;20028;-65
2023/03/18 02:57:53;;;;;;;37.15;22.95;;;;;;;8.86;96.91;100555.34;5100395;28;20028;-64
2023/03/18 03:00:19;;;;;;;37.65;22.60;;;;;;;8.87;96.97;100550.78;5098883;28;20055;-65
2023/03/18 03:02:44;;;;;;;32.42;21.55;;;;;;;8.82;97.19;100537.97;5103079;28;20043;-63
2023/03/18 03:05:11;;;;;;;37.25;23.02;;;;;;;8.83;97.50;100538.81;5103176;28;20024;-64
2023/03/18 03:07:36;;;;;;;34.00;22.45;;;;;;;8.70;96.94;100523.41;5102416;28;20024;-65
2023/03/18 03:10:04;;;;;;;37.97;21.83;;;;;;;8.84;96.48;100548.50;5102477;28;20038;-65
2023/03/18 03:12:30;;;;;;;41.22;22.73;;;;;;;8.84;97.28;100556.53;5102231;28;20483;-64
2023/03/18 03:14:55;;;;;;;35.28;22.92;;;;;;;8.84;96.86;100557.41;5099266;28;20040;-64
2023/03/18 03:17:21;;;;;;;34.28;21.95;;;;;;;8.80;96.69;100545.38;5099782;28;20136;-65
2023/03/18 03:19:46;;;;;;;34.55;21.98;;;;;;;8.84;97.14;100549.34;5083824;28;20055;-64
2023/03/18 03:22:12;;;;;;;33.17;21.92;;;;;;;8.87;96.66;100550.78;5099795;28;20400;-65
2023/03/18 03:24:37;;;;;;;35.70;22.58;;;;;;;8.80;97.16;100531.97;5101480;28;20129;-66
2023/03/18 03:27:03;;;;;;;34.47;22.38;;;;;;;8.74;96.97;100530.06;5101405;28;20059;-64
2023/03/18 03:29:29;;;;;;;36.53;22.80;;;;;;;8.84;96.60;100530.56;5100706;28;20077;-65
2023/03/18 03:31:54;;;;;;;35.63;22.33;;;;;;;8.79;96.63;100535.69;5101589;28;20115;-66
2023/03/18 03:34:20;;;;;;;35.40;22.13;;;;;;;8.86;96.16;100554.50;5066806;28;20031;-65
2023/03/18 03:36:45;;;;;;;37.10;23.27;;;;;;;8.89;96.42;100556.81;5099386;28;20028;-65
2023/03/18 03:39:11;;;;;;;38.22;22.67;;;;;;;8.89;96.41;100541.53;5100641;28;20024;-65
2023/03/18 03:41:37;;;;;;;42.83;24.40;;;;;;;8.86;96.60;100543.78;5100739;28;20395;-65
2023/03/18 03:44:02;;;;;;;34.67;23.42;;;;;;;8.90;96.13;100547.72;5098735;28;20020;-69
2023/03/18 03:46:28;;;;;;;36.63;23.40;;;;;;;8.89;97.19;100533.47;5100441;28;20059;-64
2023/03/18 03:48:53;;;;;;;41.67;23.90;;;;;;;8.89;96.62;100536.16;5100978;28;20034;-65
2023/03/18 03:51:19;;;;;;;37.47;23.27;;;;;;;8.91;96.06;100538.66;5099576;28;20026;-65
2023/03/18 03:53:45;;;;;;;36.65;24.67;;;;;;;8.92;96.50;100543.84;5099731;28;20088;-65
2023/03/18 03:56:11;;;;;;;36.83;23.88;;;;;;;8.94;96.05;100543.66;5099839;28;20083;-65
2023/03/18 03:58:36;;;;;;;36.00;23.10;;;;;;;8.91;96.04;100536.81;5100196;28;20032;-65
2023/03/18 04:01:05;;;;;;;41.08;25.08;;;;;;;8.92;96.35;100545.69;5100172;28;20028;-66
2023/03/18 04:03:30;;;;;;;38.17;23.90;;;;;;;8.81;96.60;100522.09;5097298;28;20032;-64
2023/03/18 04:05:56;;;;;;;37.75;24.52;;;;;;;8.90;96.40;100540.50;5094255;28;20068;-65
2023/03/18 04:08:21;;;;;;;37.03;24.20;;;;;;;8.90;96.40;100548.53;5096639;28;20478;-64
2023/03/18 04:10:47;;;;;;;39.50;25.63;;;;;;;8.90;96.70;100551.22;5100461;28;20465;-65
2023/03/18 04:13:13;;;;;;;35.97;23.27;;;;;;;8.90;96.82;100537.81;5101148;28;20039;-64
2023/03/18 04:15:38;;;;;;;39.72;24.15;;;;;;;8.87;96.74;100545.44;5102631;28;20039;-64
2023/03/18 04:18:05;;;;;;;33.92;23.75;;;;;;;8.85;96.49;100536.75;5100436;28;20035;-65
2023/03/18 04:20:36;;;;;;;35.10;23.15;;;;;;;8.83;97.07;100530.75;5102436;28;20152;-65
2023/03/18 04:23:02;;;;;;;34.33;23.17;;;;;;;8.84;96.70;100529.72;5100446;28;20081;-64
2023/03/18 04:25:28;;;;;;;37.42;23.85;;;;;;;8.79;97.75;100541.03;5101240;28;20422;-64
2023/03/18 04:27:54;;;;;;;36.72;23.67;;;;;;;8.79;97.24;100546.41;5099604;28;20028;-65
2023/03/18 04:30:22;;;;;;;37.42;23.35;;;;;;;8.78;97.37;100538.56;5084282;28;20470;-69
2023/03/18 04:32:49;;;;;;;35.35;23.40;;;;;;;8.83;97.42;100550.34;5102871;28;20062;-64
2023/03/18 04:35:16;;;;;;;38.28;24.65;;;;;;;8.82;97.89;100554.06;5100478;28;20027;-64
2023/03/18 04:37:41;;;;;;;36.80;24.70;;;;;;;8.82;97.64;100559.44;5098651;28;20020;-65
2023/03/18 04:40:08;;;;;;;35.63;24.63;;;;;;;8.66;97.56;100544.44;5100293;28;20043;-65
2023/03/18 04:42:34;;;;;;;33.85;23.50;;;;;;;8.75;97.94;100560.41;5101552;28;20076;-65
2023/03/18 04:45:00;;;;;;;35.60;24.15;;;;;;;8.78;98.37;100562.72;5082984;28;20367;-65
2023/03/18 04:47:27;;;;;;;40.28;25.42;;;;;;;8.74;97.90;100556.91;5101917;28;20035;-66
2023/03/18 04:49:53;;;;;;;35.67;24.90;;;;;;;8.70;98.78;100561.78;5100682;28;20046;-67
2023/03/18 04:52:19;;;;;;;42.13;26.20;;;;;;;8.69;97.94;100560.16;5100078;28;20479;-64
2023/03/18 04:54:44;;;;;;;41.35;26.35;;;;;;;8.69;98.80;100559.31;5101188;28;20031;-66
2023/03/18 04:57:10;;;;;;;44.08;26.83;;;;;;;8.65;98.54;100558.88;5102573;28;20081;-64
2023/03/18 04:59:35;;;;;;;41.30;25.48;;;;;;;8.61;98.48;100546.88;5101972;28;20051;-64
2023/03/18 05:02:01;;;;;;;42.30;26.67;;;;;;;8.54;99.17;100534.41;5101792;28;20028;-65
2023/03/18 05:04:27;;;;;;;42.90;26.23;;;;;;;8.58;99.09;100541.91;5100513;28;20099;-64
2023/03/18 05:06:52;;;;;;;40.83;26.92;;;;;;;8.55;99.00;100541.47;5102051;28;20035;-66
2023/03/18 05:09:18;;;;;;;43.65;26.80;;;;;;;8.57;99.09;100539.41;5100847;28;20035;-65
2023/03/18 05:11:44;;;;;;;39.95;26.55;;;;;;;8.55;99.01;100542.28;5101678;28;20039;-64
2023/03/18 05:14:09;;;;;;;40.17;26.92;;;;;;;8.48;98.88;100530.66;5100084;28;20040;-65
2023/03/18 05:16:35;;;;;;;41.00;27.40;;;;;;;8.53;99.45;100538.94;5080850;28;20051;-66
2023/03/18 05:19:01;;;;;;;46.17;28.73;;;;;;;8.46;99.20;100538.88;5080747;28;20064;-65
2023/03/18 05:21:27;;;;;;;48.22;29.38;;;;;;;8.43;99.83;100530.41;5099075;28;20031;-64
2023/03/18 05:23:52;;;;;;;48.15;28.98;;;;;;;8.50;99.90;100542.00;5099744;28;20506;-65
2023/03/18 05:26:18;;;;;;;53.88;29.55;;;;;;;8.50;99.65;100542.00;5098122;28;20607;-65
2023/03/18 05:28:43;;;;;;;45.17;27.83;;;;;;;8.38;100.00;100524.81;5096697;28;20561;-65
2023/03/18 05:31:09;;;;;;;48.78;30.45;;;;;;;8.50;99.75;100546.56;5100142;28;20452;-65
2023/03/18 05:33:35;;;;;;;52.95;30.38;;;;;;;8.43;100.00;100533.91;5099381;28;20054;-65
2023/03/18 05:36:00;;;;;;;47.65;30.08;;;;;;;8.49;100.00;100542.22;5098670;28;20073;-64
2023/03/18 05:38:26;;;;;;;54.40;31.92;;;;;;;8.30;100.00;100524.88;5080606;28;20027;-64
2023/03/18 05:40:52;;;;;;;50.90;31.25;;;;;;;8.35;100.00;100539.38;5097738;28;20558;-64
2023/03/18 05:43:17;;;;;;;53.70;32.97;;;;;;;8.40;100.00;100549.56;5099506;28;20412;-64
2023/03/18 05:45:43;;;;;;;52.70;32.28;;;;;;;8.34;100.00;100545.75;5098611;28;20028;-65
2023/03/18 05:48:09;;;;;;;51.45;31.15;;;;;;;8.34;100.00;100547.59;5099136;28;20093;-64
2023/03/18 05:50:38;;;;;;;57.47;32.05;;;;;;;8.33;100.00;100546.78;5098131;28;20016;-65
2023/03/18 05:53:05;;;;;;;54.28;32.55;;;;;;;8.41;100.00;100546.69;5097638;28;20374;-64
2023/03/18 05:55:31;;;;;;;62.33;33.67;;;;;;;8.37;100.00;100545.38;5099210;28;20035;-64
2023/03/18 05:57:58;;;;;;;55.17;32.00;;;;;;;8.35;100.00;100552.78;5099038;28;20349;-65
2023/03/18 06:00:24;;;;;;;62.35;33.60;;;;;;;8.36;100.00;100551.75;5098666;28;20028;-65
2023/03/18 06:02:51;;;;;;;55.92;31.90;;;;;;;8.35;100.00;100554.63;5099099;28;20172;-66
2023/03/18 06:05:17;;;;;;;60.22;32.20;;;;;;;8.31;100.00;100554.19;5099541;28;20058;-65
2023/03/18 06:07:44;;;;;;;51.67;31.30;;;;;;;8.32;100.00;100561.22;5100855;28;20028;-65
2023/03/18 06:10:11;;;;;;;56.20;31.65;;;;;;;8.35;100.00;100558.16;5100694;28;20115;-65
2023/03/18 06:12:36;;;;;;;55.20;31.48;;;;;;;8.20;100.00;100550.13;5098222;28;20021;-64
2023/03/18 06:15:03;;;;;;;54.75;31.65;;;;;;;8.20;100.00;100549.31;5098094;28;20031;-65
2023/03/18 06:17:28;;;;;;;64.60;32.40;;;;;;;8.31;100.00;100567.59;5098558;28;20105;-66
2023/03/18 06:19:55;;;;;;;59.05;31.00;;;;;;;8.21;100.00;100543.78;5096499;28;20051;-66
2023/03/18 06:22:21;;;;;;;58.20;32.22;;;;;;;8.22;100.00;100561.50;5098005;28;20449;-66
2023/03/18 06:24:46;;;;;;;51.88;31.17;;;;;;;8.23;100.00;100567.69;5099653;28;20020;-65
2023/03/18 06:27:12;;;;;;;62.58;32.47;;;;;;;8.20;100.00;100562.72;5098908;28;20056;-66
2023/03/18 06:29:37;;;;;;;54.03;31.55;;;;;;;8.26;100.00;100578.03;5099734;28;20032;-68
2023/03/18 06:32:03;;;;;;;57.20;31.58;;;;;;;8.24;100.00;100577.41;5099632;28;20036;-67
2023/03/18 06:34:29;;;;;;;58.20;32.42;;;;;;;8.21;100.00;100580.44;5097586;28;20471;-65
2023/03/18 06:36:55;;;;;;;59.60;32.05;;;;;;;8.26;100.00;100587.94;5079855;28;20031;-66
2023/03/18 06:39:21;;;;;;;57.03;31.27;;;;;;;8.23;100.00;100587.28;5079777;28;20115;-65
2023/03/18 06:41:47;;;;;;;56.17;32.35;;;;;;;8.20;100.00;100594.88;5097676;28;20055;-66
2023/03/18 06:44:12;;;;;;;59.78;32.15;;;;;;;8.24;100.00;100596.16;5080755;28;20020;-66
2023/03/18 06:46:38;;;;;;;60.10;31.50;;;;;;;8.09;100.00;100572.09;5098480;28;20042;-66
2023/03/18 06:49:04;;;;;;;52.90;29.65;;;;;;;8.19;100.00;100591.38;5100199;28;20039;-66
2023/03/18 06:51:31;;;;;;;55.28;31.88;;;;;;;8.24;100.00;100590.78;5104602;28;20028;-66
2023/03/18 06:53:57;;;;;;;50.38;29.65;;;;;;;8.24;100.00;100588.13;5101276;28;20095;-66
2023/03/18 06:56:22;;;;;;;51.08;29.10;;;;;;;8.24;100.00;100598.84;5100966;28;20048;-66
2023/03/18 06:58:48;;;;;;;49.65;30.52;;;;;;;8.25;100.00;100595.16;5101773;28;20028;-66
2023/03/18 07:01:13;;;;;;;58.72;30.65;;;;;;;8.23;100.00;100597.19;5101780;28;20454;-66
2023/03/18 07:03:39;;;;;;;60.95;30.63;;;;;;;8.24;100.00;100593.47;5101561;28;20035;-66
2023/03/18 07:06:06;;;;;;;61.20;32.17;;;;;;;8.25;100.00;100589.78;5101552;28;20475;-66
2023/03/18 07:08:32;;;;;;;53.13;30.15;;;;;;;8.23;100.00;100591.81;5103001;28;20402;-66
2023/03/18 07:10:57;;;;;;;57.03;31.08;;;;;;;8.27;100.00;100590.41;5101405;28;20032;-65
2023/03/18 07:13:23;;;;;;;51.55;30.15;;;;;;;8.23;100.00;100573.88;5100733;28;20084;-65
2023/03/18 07:15:49;;;;;;;53.22;29.67;;;;;;;8.32;100.00;100581.81;5099487;28;20052;-66
2023/03/18 07:18:15;;;;;;;51.10;29.70;;;;;;;8.23;100.00;100563.16;5100475;28;20026;-66
2023/03/18 07:20:40;;;;;;;56.97;32.38;;;;;;;8.42;100.00;100591.25;5100485;28;20084;-66
2023/03/18 07:23:07;;;;;;;52.88;29.83;;;;;;;8.52;100.00;100600.84;5099607;28;20028;-65
2023/03/18 07:25:32;;;;;;;53.13;30.10;;;;;;;8.58;100.00;100602.75;5100554;28;20078;-67
2023/03/18 07:28:02;;;;;;;53.83;29.27;;;;;;;8.58;100.00;100597.41;5100706;28;20024;-66
2023/03/18 07:30:27;;;;;;;52.88;29.33;;;;;;;8.60;100.00;100600.69;5099920;28;20043;-65
2023/03/18 07:32:54;;;;;;;50.40;28.38;;;;;;;8.60;100.00;100601.53;5100224;28;20035;-65
2023/03/18 07:35:20;;;;;;;55.60;29.27;;;;;;;8.68;100.00;100606.78;5099035;28;20058;-66
2023/03/18 07:37:46;;;;;;;50.03;27.98;;;;;;;8.73;100.00;100616.91;5098609;28;20104;-66
2023/03/18 07:40:13;;;;;;;48.40;28.73;;;;;;;8.77;100.00;100609.31;5098537;28;20142;-66
2023/03/18 07:42:39;;;;;;;50.75;28.23;;;;;;;8.80;100.00;100611.63;5083012;28;20028;-66
2023/03/18 07:45:08;;;;;;;46.67;28.55;;;;;;;8.90;100.00;100607.59;5099677;28;20028;-66
2023/03/18 07:47:33;;;;;;;48.70;28.33;;;;;;;8.85;100.00;100606.53;5100179;28;20036;-66
2023/03/18 07:49:59;;;;;;;45.33;27.85;;;;;;;8.99;100.00;100620.88;5100334;28;20032;-65
2023/03/18 07:52:25;;;;;;;43.90;27.48;;;;;;;9.07;100.00;100621.59;5100735;28;20554;-65
2023/03/18 07:54:51;;;;;;;49.72;28.30;;;;;;;9.10;100.00;100623.84;5100532;28;20123;-65
2023/03/18 07:57:17;;;;;;;43.92;27.10;;;;;;;9.06;100.00;100625.28;5099961;28;20024;-65
2023/03/18 07:59:42;;;;;;;43.58;26.90;;;;;;;9.09;100.00;100632.94;5099045;28;20058;-66
2023/03/18 08:02:13;;;;;;;44.40;27.42;;;;;;;9.07;100.00;100635.00;5099271;28;20036;-65
2023/03/18 08:04:39;;;;;;;45.88;27.90;;;;;;;9.08;100.00;100633.97;5099617;28;20031;-65
2023/03/18 08:07:05;;;;;;;41.80;27.00;;;;;;;9.08;100.00;100633.16;5101309;28;20146;-65
2023/03/18 08:09:31;;;;;;;40.97;26.40;;;;;;;9.12;100.00;100642.47;5101566;28;20462;-66
2023/03/18 08:11:57;;;;;;;43.00;27.08;;;;;;;9.16;100.00;100641.06;5100796;28;20046;-66
2023/03/18 08:14:22;;;;;;;39.92;26.63;;;;;;;9.15;100.00;100639.41;5100701;28;20028;-65
2023/03/18 08:16:48;;;;;;;46.15;26.70;;;;;;;9.18;100.00;100645.22;5099563;28;20028;-65
2023/03/18 08:19:14;;;;;;;38.97;26.48;;;;;;;9.22;100.00;100637.59;5100411;28;20143;-65
2023/03/18 08:21:39;;;;;;;40.22;26.27;;;;;;;9.22;100.00;100629.53;5097872;28;20032;-66
2023/03/18 08:24:05;;;;;;;42.55;25.85;;;;;;;9.33;100.00;100630.84;5079178;28;20040;-66
2023/03/18 08:26:31;;;;;;;43.35;26.13;;;;;;;9.33;100.00;100630.84;5096349;28;20475;-65
2023/03/18 08:28:56;;;;;;;41.10;26.38;;;;;;;9.28;100.00;100612.66;5080698;28;20054;-66
2023/03/18 08:31:22;;;;;;;47.63;25.52;;;;;;;9.45;100.00;100629.31;5098583;28;20020;-65
2023/03/18 08:33:48;;;;;;;43.75;25.58;;;;;;;9.39;100.00;100620.16;5100281;28;20032;-65
2023/03/18 08:36:14;;;;;;;40.72;25.33;;;;;;;9.39;100.00;100617.47;5120758;28;20035;-66
2023/03/18 08:38:39;;;;;;;38.40;25.25;;;;;;;9.55;100.00;100626.25;5091193;28;20027;-67
2023/03/18 08:41:05;;;;;;;33.17;23.52;;;;;;;9.60;100.00;100635.41;5110780;28;20046;-66
2023/03/18 08:43:31;;;;;;;39.92;24.00;;;;;;;9.63;100.00;100634.16;5118847;28;20106;-66
2023/03/18 08:45:57;;;;;;;43.10;24.85;;;;;;;9.63;100.00;100640.38;5115797;28;20159;-66
2023/03/18 08:48:24;;;;;;;34.83;22.90;;;;;;;9.61;100.00;100641.59;5108470;28;20427;-65
2023/03/18 08:50:49;;;;;;;34.67;23.25;;;;;;;9.59;100.00;100635.59;5114457;28;20359;-66
2023/03/18 08:53:15;;;;;;;33.13;22.20;;;;;;;9.65;100.00;100632.94;5106082;28;20032;-66
2023/03/18 08:55:41;;;;;;;31.52;20.98;;;;;;;9.69;100.00;100637.91;5104340;28;20024;-65
2023/03/18 08:58:07;;;;;;;31.08;22.30;;;;;;;9.64;100.00;100611.66;5116451;28;20083;-67
2023/03/18 09:00:35;;;;;;;34.65;23.25;;;;;;;9.87;100.00;100631.00;5104281;28;20035;-65
2023/03/18 09:03:02;;;;;;;32.97;21.88;;;;;;;9.95;100.00;100631.88;5113560;28;20139;-66
2023/03/18 09:05:27;;;;;;;28.45;20.60;;;;;;;9.95;100.00;100634.56;5112854;28;20031;-71
2023/03/18 09:07:53;;;;;;;31.30;21.15;;;;;;;9.94;100.00;100630.22;5106095;28;20392;-65
2023/03/18 09:10:19;;;;;;;28.75;20.85;;;;;;;9.95;100.00;100637.25;5116785;28;20093;-65
2023/03/18 09:12:45;;;;;;;29.92;19.90;;;;;;;9.93;100.00;100639.28;5104312;28;20031;-65
2023/03/18 09:15:13;;;;;;;29.25;19.98;;;;;;;9.80;100.00;100659.72;5110834;28;20061;-66
2023/03/18 09:17:39;;;;;;;24.67;18.92;;;;;;;9.85;100.00;100662.63;5114170;28;20033;-65
2023/03/18 09:20:13;;;;;;;26.00;19.35;;;;;;;9.92;100.00;100662.66;5100594;28;20051;-65
2023/03/18 09:22:40;;;;;;;27.58;19.85;;;;;;;9.94;100.00;100667.84;5091429;28;20087;-65
2023/03/18 09:25:06;;;;;;;30.42;20.15;;;;;;;9.79;100.00;100668.78;5105767;28;20028;-66
2023/03/18 09:27:32;;;;;;;26.02;18.45;;;;;;;9.79;100.00;100667.94;5113192;28;20073;-66
2023/03/18 09:29:58;;;;;;;33.67;20.83;;;;;;;9.65;100.00;100650.91;5104520;28;20024;-66
2023/03/18 09:32:24;;;;;;;28.50;19.80;;;;;;;9.88;100.00;100678.34;5104435;28;20049;-66
2023/03/18 09:34:50;;;;;;;27.45;20.33;;;;;;;9.90;100.00;100672.78;5099014;28;20386;-65
2023/03/18 09:37:17;;;;;;;29.10;20.80;;;;;;;9.91;100.00;100681.69;5082426;28;20088;-67
2023/03/18 09:39:43;;;;;;;26.48;19.45;;;;;;;9.89;100.00;100671.94;5096948;28;20542;-66
2023/03/18 09:42:41;;;;;;;28.23;19.08;;;;;;;10.07;100.00;100687.56;5102635;28;20020;-65
2023/03/18 09:45:16;;;;;;;26.10;18.23;;;;;;;10.10;100.00;100686.34;5035886;28;20048;-65
2023/03/18 09:48:18;;;;;;;25.92;18.08;;;;;;;10.06;100.00;100688.56;5107923;28;20046;-65
2023/03/18 09:51:04;;;;;;;23.92;16.60;;;;;;;10.03;100.00;100696.22;5110924;28;20519;-66
2023/03/18 09:53:47;;;;;;;23.48;16.13;;;;;;;10.01;100.00;100700.97;5096194;28;20037;-66
2023/03/18 09:56:19;;;;;;;26.10;16.60;;;;;;;9.99;100.00;100695.78;5096457;28;20107;-65
2023/03/18 09:59:05;;;;;;;22.77;16.85;;;;;;;10.05;100.00;100699.53;5098930;28;20024;-65
2023/03/18 10:01:36;;;;;;;23.00;16.98;;;;;;;10.05;100.00;100703.06;5097478;28;20020;-65
2023/03/18 10:04:12;;;;;;;22.48;16.30;;;;;;;9.97;100.00;100681.72;5097202;28;20027;-65
2023/03/18 10:06:42;;;;;;;22.63;16.23;;;;;;;10.10;100.00;100697.09;5098501;28;20478;-65
2023/03/18 10:09:13;;;;;;;21.17;16.17;;;;;;;10.05;100.00;100704.91;5098539;28;20028;-67
2023/03/18 10:11:42;;;;;;;19.58;14.90;;;;;;;10.08;100.00;100699.13;5098935;28;20024;-66
2023/03/18 10:14:33;;;;;;;23.42;15.55;;;;;;;10.10;100.00;100697.09;5097650;28;20024;-65
2023/03/18 10:17:21;;;;;;;23.70;14.65;;;;;;;10.23;100.00;100690.94;5097254;28;20156;-66
2023/03/18 10:19:53;;;;;;;20.00;15.02;;;;;;;10.33;100.00;100686.03;5091991;28;20044;-65
2023/03/18 10:22:27;;;;;;;22.73;15.10;;;;;;;10.42;100.00;100687.53;5093530;28;20061;-65
2023/03/18 10:25:03;;;;;;;19.83;14.32;;;;;;;10.49;100.00;100687.56;5097082;28;20036;-65
2023/03/18 10:27:46;;;;;;;20.77;14.10;;;;;;;10.53;100.00;100691.53;5076016;28;20040;-65
2023/03/18 10:30:26;;;;;;;19.58;13.75;;;;;;;10.61;100.00;100694.03;5061396;28;20090;-65
2023/03/18 10:33:09;;;;;;;21.38;14.38;;;;;;;10.61;100.00;100694.03;5078049;28;20704;-65
2023/03/18 10:35:47;;;;;;;22.98;13.70;;;;;;;10.63;100.00;100694.66;5078864;28;20032;-66
2023/03/18 10:38:24;;;;;;;18.90;12.77;;;;;;;10.62;100.00;100698.38;5074041;28;20111;-65
2023/03/18 10:40:50;;;;;;;17.83;12.93;;;;;;;10.63;100.00;100702.75;5058257;28;20163;-66
2023/03/18 10:43:18;;;;;;;20.23;13.65;;;;;;;10.69;100.00;100701.09;5063044;28;20041;-66
2023/03/18 10:45:47;;;;;;;18.23;12.77;;;;;;;10.67;100.00;100692.41;5068945;28;20059;-66
2023/03/18 10:48:21;;;;;;;19.73;12.63;;;;;;;10.61;100.00;100696.72;5088202;28;20092;-66
2023/03/18 10:51:12;;;;;;;20.27;12.55;;;;;;;10.62;100.00;100711.00;5079631;28;20020;-66
2023/03/18 10:53:44;;;;;;;18.75;12.45;;;;;;;10.54;100.00;100709.31;5079701;28;20024;-66
2023/03/18 10:56:11;;;;;;;16.85;12.55;;;;;;;10.52;99.78;100706.81;5062583;28;20029;-65
2023/03/18 10:58:39;;;;;;;19.30;13.35;;;;;;;10.46;99.67;100712.16;5081497;28;20028;-66
2023/03/18 11:01:07;;;;;;;17.48;13.07;;;;;;;10.48;99.77;100702.06;5100236;28;20443;-65
2023/03/18 11:03:38;;;;;;;17.85;13.13;;;;;;;10.47;99.25;100698.53;5100895;28;20407;-65
2023/03/18 11:06:12;;;;;;;16.92;12.55;;;;;;;10.55;99.07;100701.03;5101916;28;20027;-65
2023/03/18 11:08:39;;;;;;;19.10;13.50;;;;;;;10.57;98.87;100698.16;5102859;28;20499;-66
2023/03/18 11:11:31;;;;;;;18.10;12.50;;;;;;;10.80;98.65;100714.78;5100282;28;20028;-65
2023/03/18 11:13:58;;;;;;;17.38;12.57;;;;;;;10.82;97.75;100711.88;5099669;28;20465;-66
2023/03/18 11:16:41;;;;;;;15.52;12.23;;;;;;;10.78;98.43;100697.19;5100512;28;20024;-67